SBCG/CGR METAR and TAF weather

Enter ICAO airport designator
Station Type Date Time Source
SBCG METAR 2019/06/18 17:00 UTC NOAA

SBCG 181700Z 30009KT 240V330 CAVOK 28/12 Q1017


Station Type Date Time Source
SBCG Decoded METAR 2019/06/18 17:00 UTC NOAA

Campo Grande Aeroporto , Brazil (SBCG) 20-28S 054-40W 567M
Jun 18, 2019 - 01:00 PM EDT / 2019.06.18 1700 UTC
Wind: from the WNW (300 degrees) at 10 MPH (9 KT) (direction variable):0
Visibility: greater than 7 mile(s):0
Temperature: 82 F (28 C)
Dew Point: 53 F (12 C)
Relative Humidity: 37%
Pressure (altimeter): 30.03 in. Hg (1017 hPa)
ob: SBCG 181700Z 30009KT 240V330 CAVOK 28/12 Q1017
cycle: 17

Station Type Date Time Source
SBCG TAF 2019/06/18 18:12 UTC NOAA

TAF TAF SBCG 181530Z 1818/1918 36010KT 9999 FEW040 TX31/1818Z TN20/1908Z
BECMG 1820/1822 30005KT CAVOK
RMK PCO

Example: see airport list